createdAt,value
2023-03-30T00:01:17.480Z,1.83
2023-03-30T00:03:47.123Z,1.27
2023-03-30T00:06:21.772Z,0.75
2023-03-30T00:08:50.299Z,1.23
2023-03-30T00:11:18.151Z,1.85
2023-03-30T00:13:47.230Z,1.95
2023-03-30T00:16:15.979Z,1.63
2023-03-30T00:18:45.014Z,1.40
2023-03-30T00:21:13.153Z,1.00
2023-03-30T00:23:41.013Z,1.30
2023-03-30T00:26:08.811Z,1.00
2023-03-30T00:28:36.591Z,1.08
2023-03-30T00:31:06.146Z,1.55
2023-03-30T00:33:44.898Z,1.73
2023-03-30T00:36:14.119Z,1.52
2023-03-30T00:38:42.071Z,1.52
2023-03-30T00:41:10.256Z,1.58
2023-03-30T00:44:00.797Z,1.27
2023-03-30T00:46:31.155Z,2.10
2023-03-30T00:49:04.085Z,0.93
2023-03-30T00:51:35.946Z,2.22
2023-03-30T00:54:08.433Z,2.00
2023-03-30T00:56:36.563Z,1.55
2023-03-30T00:59:04.418Z,1.98
2023-03-30T01:01:38.827Z,1.55
2023-03-30T01:04:09.791Z,1.40
2023-03-30T01:06:40.059Z,2.22
2023-03-30T01:09:08.352Z,1.40
2023-03-30T01:11:36.104Z,1.25
2023-03-30T01:14:06.719Z,1.77
2023-03-30T01:16:44.075Z,1.33
2023-03-30T01:19:36.102Z,3.08
2023-03-30T01:22:42.374Z,1.75
2023-03-30T01:25:49.277Z,2.85
2023-03-30T01:28:26.473Z,2.67
2023-03-30T01:31:21.886Z,2.95
2023-03-30T01:34:22.387Z,1.63
2023-03-30T01:37:20.976Z,1.83
2023-03-30T01:39:58.068Z,1.92
2023-03-30T01:42:36.939Z,2.22
2023-03-30T01:45:13.852Z,2.60
2023-03-30T01:47:51.526Z,3.28
2023-03-30T01:50:26.233Z,2.90
2023-03-30T01:52:58.502Z,3.55
2023-03-30T01:55:33.603Z,3.30
2023-03-30T01:58:04.827Z,2.80
2023-03-30T02:00:36.303Z,2.92
2023-03-30T02:03:10.877Z,2.50
2023-03-30T02:05:40.831Z,2.72
2023-03-30T02:08:13.521Z,2.25
2023-03-30T02:10:45.832Z,1.98
2023-03-30T02:13:15.085Z,2.63
2023-03-30T02:15:46.964Z,2.67
2023-03-30T02:18:14.720Z,3.15
2023-03-30T02:20:42.658Z,1.85
2023-03-30T02:23:11.497Z,2.72
2023-03-30T02:25:42.175Z,2.33
2023-03-30T02:28:10.807Z,2.75
2023-03-30T02:30:42.412Z,2.38
2023-03-30T02:33:19.058Z,2.53
2023-03-30T02:36:14.445Z,3.35
2023-03-30T02:38:59.546Z,2.08
2023-03-30T02:41:43.526Z,2.58
2023-03-30T02:44:24.063Z,2.20
2023-03-30T02:47:06.152Z,3.03
2023-03-30T02:49:47.640Z,2.22
2023-03-30T02:52:33.610Z,3.63
2023-03-30T02:55:10.858Z,3.20
2023-03-30T02:57:51.062Z,3.03
2023-03-30T03:00:23.191Z,3.58
2023-03-30T03:02:57.562Z,2.60
2023-03-30T03:05:27.311Z,2.30
2023-03-30T03:07:56.439Z,2.50
2023-03-30T03:10:24.210Z,2.72
2023-03-30T03:12:53.349Z,3.05
2023-03-30T03:15:21.059Z,2.53
2023-03-30T03:17:48.765Z,3.65
2023-03-30T03:20:16.713Z,3.95
2023-03-30T03:22:44.455Z,2.83
2023-03-30T03:25:12.180Z,2.47
2023-03-30T03:27:39.933Z,2.72
2023-03-30T03:30:10.335Z,3.63
2023-03-30T03:32:38.152Z,3.50
2023-03-30T03:35:06.762Z,2.70
2023-03-30T03:37:34.513Z,3.35
2023-03-30T03:40:02.258Z,3.15
2023-03-30T03:42:29.937Z,2.75
2023-03-30T03:44:57.626Z,2.92
2023-03-30T03:47:26.796Z,5.13
2023-03-30T03:49:55.146Z,3.92
2023-03-30T03:52:23.065Z,3.75
2023-03-30T03:54:51.051Z,2.72
2023-03-30T03:57:18.755Z,3.30
2023-03-30T03:59:46.650Z,3.17
2023-03-30T04:02:14.411Z,3.22
2023-03-30T04:04:44.186Z,2.50
2023-03-30T04:07:12.169Z,2.63
2023-03-30T04:09:39.899Z,2.38
2023-03-30T04:12:07.891Z,3.13
2023-03-30T04:14:35.983Z,2.95
2023-03-30T04:17:03.791Z,3.65
2023-03-30T04:19:31.582Z,3.05
2023-03-30T04:22:00.718Z,3.65
2023-03-30T04:24:29.880Z,1.85
2023-03-30T04:26:57.810Z,4.40
2023-03-30T04:29:26.196Z,4.43
2023-03-30T04:31:54.002Z,3.72
2023-03-30T04:34:22.558Z,3.72
2023-03-30T04:36:50.641Z,3.97
2023-03-30T04:39:20.810Z,4.07
2023-03-30T04:41:48.623Z,2.58
2023-03-30T04:44:20.408Z,2.45
2023-03-30T04:46:48.126Z,3.13
2023-03-30T04:49:15.846Z,3.42
2023-03-30T04:51:43.561Z,3.47
2023-03-30T04:54:11.278Z,2.75
2023-03-30T04:56:40.521Z,3.35
2023-03-30T04:59:08.398Z,4.22
2023-03-30T05:01:36.201Z,2.90
2023-03-30T05:04:04.072Z,3.13
2023-03-30T05:06:31.935Z,5.07
2023-03-30T05:08:59.752Z,3.58
2023-03-30T05:11:27.744Z,2.28
2023-03-30T05:13:56.839Z,4.22
2023-03-30T05:16:24.863Z,3.47
2023-03-30T05:18:52.606Z,3.30
2023-03-30T05:21:20.568Z,4.55
2023-03-30T05:23:48.298Z,4.20
2023-03-30T05:26:16.271Z,4.40
2023-03-30T05:28:44.038Z,3.88
2023-03-30T05:31:13.201Z,4.05
2023-03-30T05:33:42.720Z,4.00
2023-03-30T05:36:12.029Z,4.55
2023-03-30T05:38:39.930Z,4.97
2023-03-30T05:41:08.988Z,3.55
2023-03-30T05:43:37.655Z,3.53
2023-03-30T05:46:06.010Z,2.88
2023-03-30T05:48:35.198Z,3.65
2023-03-30T05:51:03.155Z,4.40
2023-03-30T05:53:30.993Z,3.22
2023-03-30T05:55:58.750Z,3.15
2023-03-30T05:58:27.340Z,4.18
2023-03-30T06:00:58.622Z,3.08
2023-03-30T06:03:26.658Z,3.88
2023-03-30T06:05:55.840Z,3.05
2023-03-30T06:08:23.570Z,2.72
2023-03-30T06:10:54.048Z,3.13
2023-03-30T06:13:21.792Z,3.28
2023-03-30T06:15:49.730Z,3.70
2023-03-30T06:18:17.799Z,2.97
2023-03-30T06:20:47.917Z,3.92
2023-03-30T06:23:17.467Z,4.43
2023-03-30T06:25:47.534Z,3.42
2023-03-30T06:28:16.040Z,3.47
2023-03-30T06:30:45.658Z,5.35
2023-03-30T06:33:13.398Z,4.00
2023-03-30T06:35:46.076Z,4.63
2023-03-30T06:38:14.254Z,3.08
2023-03-30T06:40:43.327Z,3.78
2023-03-30T06:43:16.465Z,4.85
2023-03-30T06:45:44.308Z,6.32
2023-03-30T06:48:12.227Z,4.32
2023-03-30T06:50:40.541Z,4.38
2023-03-30T06:53:08.377Z,3.95
2023-03-30T06:55:36.182Z,3.60
2023-03-30T06:58:05.287Z,3.35
2023-03-30T07:00:33.067Z,4.68
2023-03-30T07:03:00.892Z,3.75
2023-03-30T07:05:29.073Z,3.58
2023-03-30T07:07:57.577Z,3.47
2023-03-30T07:10:25.867Z,4.72
2023-03-30T07:12:54.579Z,3.88
2023-03-30T07:15:24.422Z,3.50
2023-03-30T07:17:53.474Z,5.50
2023-03-30T07:20:21.419Z,4.80
2023-03-30T07:22:49.164Z,5.03
2023-03-30T07:25:17.017Z,4.95
2023-03-30T07:27:45.406Z,5.30
2023-03-30T07:30:21.698Z,4.30
2023-03-30T07:32:51.974Z,5.10
2023-03-30T07:35:19.784Z,3.45
2023-03-30T07:37:50.790Z,3.85
2023-03-30T07:40:19.344Z,4.53
2023-03-30T07:42:47.761Z,3.42
2023-03-30T07:45:16.552Z,3.30
2023-03-30T07:47:44.767Z,3.58
2023-03-30T07:50:13.963Z,5.63
2023-03-30T07:52:41.810Z,4.22
2023-03-30T07:55:11.060Z,4.20
2023-03-30T07:57:38.805Z,4.78
2023-03-30T08:00:10.054Z,3.92
2023-03-30T08:02:38.054Z,3.67
2023-03-30T08:05:06.563Z,3.90
2023-03-30T08:07:36.679Z,3.50
2023-03-30T08:10:05.161Z,4.55
2023-03-30T08:12:33.007Z,4.32
2023-03-30T08:15:01.021Z,3.40
2023-03-30T08:17:28.907Z,4.18
2023-03-30T08:19:57.259Z,4.32
2023-03-30T08:22:25.030Z,4.32
2023-03-30T08:24:54.270Z,5.70
2023-03-30T08:27:22.108Z,4.47
2023-03-30T08:29:50.769Z,4.85
2023-03-30T08:32:18.550Z,4.18
2023-03-30T08:34:46.335Z,3.67
2023-03-30T08:37:14.030Z,3.78
2023-03-30T08:39:41.923Z,4.05
2023-03-30T08:45:11.077Z,2.65
2023-03-30T08:47:42.885Z,3.65
2023-03-30T08:50:15.861Z,3.40
2023-03-30T08:52:44.081Z,3.58
2023-03-30T08:55:31.096Z,4.30
2023-03-30T08:58:03.999Z,5.55
2023-03-30T09:00:42.559Z,3.10
2023-03-30T09:03:19.207Z,4.60
2023-03-30T09:05:53.768Z,5.55
2023-03-30T09:08:24.162Z,4.30
2023-03-30T09:10:57.827Z,5.85
2023-03-30T09:13:29.327Z,4.25
2023-03-30T09:16:06.560Z,3.72
2023-03-30T09:18:36.430Z,4.15
2023-03-30T09:21:06.847Z,4.50
2023-03-30T09:23:36.063Z,2.80
2023-03-30T09:26:14.805Z,3.15
2023-03-30T09:28:50.647Z,4.75
2023-03-30T09:31:24.380Z,4.32
2023-03-30T09:33:58.080Z,3.72
2023-03-30T09:36:32.177Z,5.15
2023-03-30T09:38:59.975Z,4.25
2023-03-30T09:41:43.313Z,3.97
2023-03-30T09:44:20.001Z,3.97
2023-03-30T09:46:51.497Z,5.93
2023-03-30T09:49:19.266Z,3.78
2023-03-30T09:51:56.092Z,3.95
2023-03-30T09:54:24.671Z,5.90
2023-03-30T09:56:57.039Z,3.55
2023-03-30T09:59:31.702Z,3.70
2023-03-30T10:02:19.077Z,3.15
2023-03-30T10:05:00.206Z,3.95
2023-03-30T10:07:30.317Z,3.58
2023-03-30T10:10:00.295Z,4.40
2023-03-30T10:12:29.465Z,4.85
2023-03-30T10:14:59.212Z,4.30
2023-03-30T10:17:28.906Z,3.97
2023-03-30T10:20:17.367Z,4.05
2023-03-30T10:22:53.703Z,3.83
2023-03-30T10:25:24.767Z,5.13
2023-03-30T10:27:56.028Z,5.47
2023-03-30T10:30:28.290Z,4.05
2023-03-30T10:33:00.596Z,5.38
2023-03-30T10:35:35.635Z,4.40
2023-03-30T10:38:05.652Z,4.18
2023-03-30T10:40:36.642Z,3.65
2023-03-30T10:43:07.296Z,4.38
2023-03-30T10:45:38.511Z,2.92
2023-03-30T10:48:21.447Z,3.40
2023-03-30T10:50:57.319Z,4.82
2023-03-30T10:53:40.614Z,4.00
2023-03-30T10:56:18.059Z,4.82
2023-03-30T10:59:00.818Z,3.60
2023-03-30T11:01:37.171Z,5.15
2023-03-30T11:04:23.281Z,2.85
2023-03-30T11:06:54.152Z,2.72
2023-03-30T11:09:27.833Z,3.40
2023-03-30T11:11:59.381Z,2.40
2023-03-30T11:14:34.607Z,3.95
2023-03-30T11:17:09.202Z,2.75
2023-03-30T11:19:45.028Z,3.33
2023-03-30T11:22:24.671Z,3.97
2023-03-30T11:24:55.645Z,2.35
2023-03-30T11:27:30.758Z,4.15
2023-03-30T11:30:04.036Z,2.13
2023-03-30T11:35:12.464Z,3.70
2023-03-30T11:37:47.005Z,2.45
2023-03-30T11:40:18.540Z,3.47
2023-03-30T11:42:48.148Z,3.00
2023-03-30T11:45:30.304Z,3.35
2023-03-30T11:48:10.773Z,3.63
2023-03-30T11:50:57.630Z,3.15
2023-03-30T11:53:33.498Z,3.60
2023-03-30T11:56:08.797Z,2.78
2023-03-30T11:58:38.385Z,3.13
2023-03-30T12:01:44.279Z,3.20
2023-03-30T12:04:13.949Z,4.20
2023-03-30T12:06:52.905Z,3.33
2023-03-30T12:09:26.324Z,3.03
2023-03-30T12:11:58.516Z,2.47
2023-03-30T12:14:44.451Z,3.95
2023-03-30T12:17:25.992Z,3.47
2023-03-30T12:20:00.488Z,3.95
2023-03-30T12:22:36.674Z,2.85
2023-03-30T12:25:16.368Z,2.80
2023-03-30T12:27:59.659Z,2.45
2023-03-30T12:30:29.013Z,2.88
2023-03-30T12:33:04.097Z,3.35
2023-03-30T12:35:57.335Z,3.17
2023-03-30T12:38:29.866Z,2.90
2023-03-30T12:41:14.562Z,2.58
2023-03-30T12:44:18.531Z,2.58
2023-03-30T12:46:58.377Z,3.35
2023-03-30T12:49:37.597Z,2.53
2023-03-30T12:52:14.118Z,3.78
2023-03-30T12:55:04.674Z,3.80
2023-03-30T12:57:47.952Z,3.85
2023-03-30T13:00:40.810Z,4.13
2023-03-30T13:03:34.157Z,2.77
2023-03-30T13:06:04.138Z,3.13
2023-03-30T13:08:35.963Z,4.28
2023-03-30T13:11:12.093Z,2.78
2023-03-30T13:13:52.232Z,2.53
2023-03-30T13:16:49.282Z,3.72
2023-03-30T13:19:26.217Z,3.85
2023-03-30T13:21:58.760Z,2.95
2023-03-30T13:24:33.422Z,2.90
2023-03-30T13:27:24.107Z,3.10
2023-03-30T13:29:56.631Z,4.07
2023-03-30T13:32:44.782Z,2.65
2023-03-30T13:35:33.155Z,1.92
2023-03-30T13:38:25.960Z,2.10
2023-03-30T13:41:05.045Z,2.87
2023-03-30T13:43:47.259Z,2.88
2023-03-30T13:46:22.931Z,1.75
2023-03-30T13:49:03.602Z,2.60
2023-03-30T13:51:32.726Z,3.67
2023-03-30T13:54:04.645Z,3.60
2023-03-30T13:56:36.089Z,2.45
2023-03-30T13:59:08.479Z,2.85
2023-03-30T14:01:39.598Z,2.38
2023-03-30T14:04:11.937Z,2.78
2023-03-30T14:06:45.797Z,3.67
2023-03-30T14:09:15.778Z,3.40
2023-03-30T14:11:46.326Z,2.80
2023-03-30T14:14:23.760Z,3.75
2023-03-30T14:16:51.952Z,3.20
2023-03-30T14:19:25.313Z,3.05
2023-03-30T14:24:29.971Z,3.13
2023-03-30T14:27:03.381Z,3.80
2023-03-30T14:29:32.492Z,3.33
2023-03-30T14:37:05.413Z,4.10
2023-03-30T14:39:39.631Z,3.85
2023-03-30T14:42:18.744Z,3.25
2023-03-30T14:44:50.665Z,4.00
2023-03-30T14:47:22.150Z,2.92
2023-03-30T14:49:52.555Z,3.17
2023-03-30T14:52:22.583Z,2.80
2023-03-30T14:55:04.277Z,3.78
2023-03-30T14:57:37.697Z,2.75
2023-03-30T15:00:21.248Z,3.22
2023-03-30T15:02:53.234Z,4.15
2023-03-30T15:05:23.992Z,3.53
2023-03-30T15:07:53.573Z,3.35
2023-03-30T15:10:24.147Z,3.05
2023-03-30T15:12:54.188Z,3.40
2023-03-30T15:15:27.468Z,3.47
2023-03-30T15:20:26.730Z,2.53
2023-03-30T15:22:55.476Z,3.00
2023-03-30T15:25:29.185Z,3.05
2023-03-30T15:28:00.275Z,4.30
2023-03-30T15:30:32.778Z,2.30
2023-03-30T15:33:00.678Z,3.40
2023-03-30T15:35:31.632Z,2.45
2023-03-30T15:38:01.145Z,2.38
2023-03-30T15:40:35.251Z,3.17
2023-03-30T15:43:16.843Z,2.85
2023-03-30T15:45:55.207Z,4.22
2023-03-30T15:48:26.924Z,3.25
2023-03-30T15:50:57.752Z,4.28
2023-03-30T15:53:40.763Z,3.22
2023-03-30T15:56:14.057Z,2.83
2023-03-30T16:01:15.124Z,3.88
2023-03-30T16:03:54.251Z,3.42
2023-03-30T16:06:22.426Z,4.45
2023-03-30T16:08:50.199Z,3.28
2023-03-30T16:11:18.697Z,3.63
2023-03-30T16:13:48.926Z,4.15
2023-03-30T16:16:19.081Z,3.90
2023-03-30T16:18:47.015Z,5.07
2023-03-30T16:21:15.708Z,5.00
2023-03-30T16:23:43.415Z,5.25
2023-03-30T16:26:12.648Z,4.47
2023-03-30T16:28:42.808Z,4.13
2023-03-30T16:31:18.046Z,5.00
2023-03-30T16:33:47.311Z,4.28
2023-03-30T16:36:16.866Z,4.15
2023-03-30T16:38:45.209Z,3.70
2023-03-30T16:41:17.440Z,3.47
2023-03-30T16:43:45.282Z,3.13
2023-03-30T16:46:14.653Z,4.15
2023-03-30T16:48:42.668Z,4.13
2023-03-30T16:51:12.876Z,3.80
2023-03-30T16:53:41.075Z,3.30
2023-03-30T16:56:16.218Z,3.45
2023-03-30T16:58:44.040Z,2.88
2023-03-30T17:01:13.198Z,3.78
2023-03-30T17:03:41.323Z,2.80
2023-03-30T17:06:09.451Z,4.32
2023-03-30T17:08:39.854Z,5.10
2023-03-30T17:11:10.838Z,3.25
2023-03-30T17:13:38.538Z,3.40
2023-03-30T17:16:06.680Z,4.00
2023-03-30T17:18:34.407Z,2.53
2023-03-30T17:21:02.648Z,5.82
2023-03-30T17:23:32.263Z,5.07
2023-03-30T17:26:02.818Z,3.30
2023-03-30T17:28:32.102Z,3.10
2023-03-30T17:31:01.962Z,3.15
2023-03-30T17:33:31.674Z,3.60
2023-03-30T17:36:02.075Z,4.68
2023-03-30T17:38:30.033Z,4.20
2023-03-30T17:40:57.974Z,3.53
2023-03-30T17:43:27.168Z,3.25
2023-03-30T17:45:55.001Z,5.13
2023-03-30T17:48:23.515Z,4.35
2023-03-30T17:50:51.769Z,2.95
2023-03-30T17:53:21.600Z,4.03
2023-03-30T17:55:51.958Z,3.65
2023-03-30T17:58:22.378Z,3.40
2023-03-30T18:00:52.574Z,2.85
2023-03-30T18:03:22.407Z,2.42
2023-03-30T18:05:51.406Z,3.80
2023-03-30T18:08:23.884Z,3.22
2023-03-30T18:10:52.757Z,2.90
2023-03-30T18:13:21.750Z,2.53
2023-03-30T18:15:53.061Z,3.35
2023-03-30T18:18:24.743Z,3.28
2023-03-30T18:20:53.910Z,3.17
2023-03-30T18:23:22.300Z,3.10
2023-03-30T18:25:50.536Z,3.67
2023-03-30T18:28:21.339Z,3.13
2023-03-30T18:30:49.438Z,2.92
2023-03-30T18:33:18.581Z,3.38
2023-03-30T18:35:48.356Z,2.35
2023-03-30T18:38:18.667Z,4.30
2023-03-30T18:40:49.517Z,3.47
2023-03-30T18:43:17.556Z,3.40
2023-03-30T18:45:46.951Z,2.67
2023-03-30T18:48:17.443Z,2.13
2023-03-30T18:50:47.803Z,2.38
2023-03-30T18:53:17.252Z,2.88
2023-03-30T18:55:47.123Z,2.72
2023-03-30T18:58:16.729Z,2.90
2023-03-30T19:00:44.445Z,2.63
2023-03-30T19:03:13.307Z,2.90
2023-03-30T19:05:41.906Z,3.15
2023-03-30T19:08:12.856Z,3.00
2023-03-30T19:10:42.860Z,2.67
2023-03-30T19:13:13.214Z,2.60
2023-03-30T19:15:41.292Z,2.22
2023-03-30T19:18:09.654Z,3.05
2023-03-30T19:20:41.182Z,2.50
2023-03-30T19:23:10.927Z,2.45
2023-03-30T19:25:40.799Z,2.38
2023-03-30T19:28:10.435Z,2.03
2023-03-30T19:30:39.781Z,2.47
2023-03-30T19:33:09.825Z,2.92
2023-03-30T19:35:40.053Z,2.92
2023-03-30T19:38:07.927Z,2.97
2023-03-30T19:40:35.788Z,2.72
2023-03-30T19:43:04.941Z,2.63
2023-03-30T19:45:32.689Z,3.15
2023-03-30T19:48:00.543Z,4.05
2023-03-30T19:50:30.141Z,2.30
2023-03-30T19:52:58.331Z,2.15
2023-03-30T19:55:26.304Z,3.08
2023-03-30T19:57:54.087Z,2.50
2023-03-30T20:00:23.728Z,3.25
2023-03-30T20:02:53.502Z,4.80
2023-03-30T20:05:23.146Z,3.20
2023-03-30T20:07:51.308Z,2.88
2023-03-30T20:10:21.853Z,3.47
2023-03-30T20:12:50.470Z,3.58
2023-03-30T20:15:19.175Z,3.95
2023-03-30T20:17:48.360Z,3.03
2023-03-30T20:20:22.718Z,2.78
2023-03-30T20:22:53.413Z,2.72
2023-03-30T20:25:22.223Z,3.15
2023-03-30T20:27:50.489Z,3.65
2023-03-30T20:30:18.767Z,2.58
2023-03-30T20:33:03.906Z,3.25
2023-03-30T20:35:36.403Z,2.47
2023-03-30T20:38:04.608Z,3.25
2023-03-30T20:40:33.146Z,2.53
2023-03-30T20:43:02.207Z,2.67
2023-03-30T20:45:30.522Z,2.65
2023-03-30T20:48:06.015Z,2.67
2023-03-30T20:50:34.602Z,3.13
2023-03-30T20:53:02.571Z,2.92
2023-03-30T20:55:30.311Z,3.60
2023-03-30T20:57:58.048Z,2.15
2023-03-30T21:00:25.895Z,3.30
2023-03-30T21:02:53.644Z,4.30
2023-03-30T21:05:22.759Z,3.35
2023-03-30T21:07:50.459Z,2.75
2023-03-30T21:10:18.339Z,3.15
2023-03-30T21:12:46.132Z,2.95
2023-03-30T21:15:14.333Z,4.32
2023-03-30T21:17:42.175Z,2.53
2023-03-30T21:20:11.634Z,2.90
2023-03-30T21:22:40.863Z,3.17
2023-03-30T21:25:09.323Z,4.80
2023-03-30T21:27:37.023Z,3.15
2023-03-30T21:30:05.413Z,2.85
2023-03-30T21:32:33.270Z,3.80
2023-03-30T21:35:01.119Z,3.00
2023-03-30T21:37:28.868Z,2.35
2023-03-30T21:39:58.046Z,3.22
2023-03-30T21:42:25.800Z,3.17
2023-03-30T21:44:53.521Z,2.35
2023-03-30T21:47:21.213Z,3.28
2023-03-30T21:49:48.914Z,2.20
2023-03-30T21:52:16.654Z,3.53
2023-03-30T21:54:44.387Z,2.95
2023-03-30T21:57:13.496Z,2.50
2023-03-30T21:59:41.235Z,3.70
2023-03-30T22:02:09.122Z,2.97
2023-03-30T22:04:36.923Z,3.03
2023-03-30T22:07:04.924Z,2.40
2023-03-30T22:09:32.692Z,3.63
2023-03-30T22:12:00.626Z,3.67
2023-03-30T22:14:29.940Z,2.75
2023-03-30T22:16:58.632Z,2.35
2023-03-30T22:19:26.616Z,2.60
2023-03-30T22:21:54.291Z,4.15
2023-03-30T22:24:22.127Z,4.32
2023-03-30T22:26:49.927Z,4.43
2023-03-30T22:29:20.653Z,3.08
2023-03-30T22:31:51.457Z,3.38
2023-03-30T22:34:19.276Z,3.15
2023-03-30T22:36:47.016Z,4.07
2023-03-30T22:39:14.779Z,3.55
2023-03-30T22:41:42.462Z,4.75
2023-03-30T22:44:11.186Z,4.30
2023-03-30T22:46:38.993Z,4.72
2023-03-30T22:49:08.137Z,3.40
2023-03-30T22:51:38.266Z,4.15
2023-03-30T22:54:06.374Z,3.85
2023-03-30T22:56:34.080Z,3.35
2023-03-30T22:59:01.946Z,6.13
2023-03-30T23:01:32.296Z,4.93
2023-03-30T23:04:00.576Z,4.68
2023-03-30T23:06:29.890Z,4.72
2023-03-30T23:08:57.915Z,4.00
2023-03-30T23:11:26.443Z,5.45
2023-03-30T23:13:54.413Z,4.75
2023-03-30T23:16:22.742Z,3.55
2023-03-30T23:18:51.157Z,4.35
2023-03-30T23:21:21.844Z,4.32
2023-03-30T23:23:51.048Z,5.40
2023-03-30T23:26:19.448Z,5.88
2023-03-30T23:28:47.229Z,5.40
2023-03-30T23:31:17.410Z,6.97
2023-03-30T23:33:45.717Z,6.50
2023-03-30T23:36:14.255Z,6.20
2023-03-30T23:38:42.116Z,7.60
2023-03-30T23:41:14.630Z,6.70
2023-03-30T23:43:42.509Z,5.28
2023-03-30T23:46:10.961Z,7.20
2023-03-30T23:48:39.069Z,5.68
2023-03-30T23:51:07.540Z,5.50
2023-03-30T23:53:39.810Z,4.45
2023-03-30T23:56:12.679Z,8.10
2023-03-30T23:58:42.238Z,6.60
